Time;durP1;ratioP1;P1;durP2;ratioP2;P2;SDS_P1;SDS_P2;PMS_P1;PMS_P2;Temp;Humidity;BMP_temperature;BMP_pressure;BME280_temperature;BME280_humidity;BME280_pressure;Samples;Min_cycle;Max_cycle;Signal;HPM_P1;HPM_P2
2021/12/29 00:01:40;;;;;;;61.70;8.98;;;;;;;;;;5096206;28;20047;-76
2021/12/29 00:04:06;;;;;;;105.05;13.10;;;;;;;;;;5113132;28;20044;-76
2021/12/29 00:06:32;;;;;;;87.20;12.38;;;;;;;;;;5096139;28;20431;-76
2021/12/29 00:08:59;;;;;;;150.60;16.45;;;;;;;;;;5095762;28;20134;-76
2021/12/29 00:11:26;;;;;;;80.60;12.68;;;;;;;;;;5113072;28;20054;-76
2021/12/29 00:13:52;;;;;;;117.35;17.08;;;;;;;;;;5113319;28;20047;-76
2021/12/29 00:16:18;;;;;;;65.95;10.82;;;;;;;;;;5096171;28;20371;-77
2021/12/29 00:18:44;;;;;;;32.15;9.93;;;;;;;;;;5095848;28;20126;-77
2021/12/29 00:21:10;;;;;;;47.83;9.75;;;;;;;;;;5113135;28;20043;-77
2021/12/29 00:23:36;;;;;;;36.08;9.05;;;;;;;;;;5098604;28;20066;-77
2021/12/29 00:26:02;;;;;;;35.03;10.00;;;;;;;;;;5116172;28;20061;-77
2021/12/29 00:28:28;;;;;;;18.27;7.80;;;;;;;;;;5081059;28;20097;-76
2021/12/29 00:30:55;;;;;;;29.75;10.35;;;;;;;;;;5092928;28;20243;-76
2021/12/29 00:33:21;;;;;;;25.75;8.80;;;;;;;;;;5093202;28;20028;-77
2021/12/29 00:35:47;;;;;;;25.90;8.80;;;;;;;;;;5092720;28;20457;-77
2021/12/29 00:38:14;;;;;;;22.08;7.38;;;;;;;;;;5092881;28;20032;-77
2021/12/29 00:40:40;;;;;;;17.17;7.35;;;;;;;;;;5093046;28;20040;-77
2021/12/29 00:43:07;;;;;;;18.67;7.40;;;;;;;;;;5092585;28;20048;-77
2021/12/29 00:45:35;;;;;;;18.80;7.97;;;;;;;;;;5092524;28;20040;-77
2021/12/29 00:48:02;;;;;;;22.27;6.10;;;;;;;;;;5092792;28;20067;-77
2021/12/29 00:50:28;;;;;;;18.70;6.63;;;;;;;;;;5092466;28;20036;-77
2021/12/29 00:52:54;;;;;;;22.17;7.38;;;;;;;;;;5092559;28;20059;-76
2021/12/29 00:55:20;;;;;;;17.08;6.28;;;;;;;;;;5092699;28;20087;-76
2021/12/29 00:57:46;;;;;;;18.63;6.28;;;;;;;;;;5092993;28;20040;-78
2021/12/29 01:00:14;;;;;;;17.75;6.47;;;;;;;;;;5092386;28;20480;-77
2021/12/29 01:02:40;;;;;;;17.40;6.07;;;;;;;;;;5092304;28;20047;-77
2021/12/29 01:05:07;;;;;;;18.98;6.18;;;;;;;;;;5092260;28;20083;-78
2021/12/29 01:07:33;;;;;;;20.42;6.50;;;;;;;;;;5092218;28;20060;-77
2021/12/29 01:10:00;;;;;;;20.30;6.30;;;;;;;;;;5092033;28;20051;-76
2021/12/29 01:12:27;;;;;;;21.90;6.38;;;;;;;;;;5091971;28;20044;-76
2021/12/29 01:14:55;;;;;;;15.57;5.65;;;;;;;;;;5092013;28;20090;-76
2021/12/29 01:17:22;;;;;;;19.98;6.30;;;;;;;;;;5091970;28;20414;-76
2021/12/29 01:19:49;;;;;;;18.90;5.75;;;;;;;;;;5092081;28;20028;-77
2021/12/29 01:22:16;;;;;;;15.43;5.55;;;;;;;;;;5091969;28;20054;-77
2021/12/29 01:24:43;;;;;;;13.88;5.10;;;;;;;;;;5091874;28;20047;-76
2021/12/29 01:27:09;;;;;;;15.13;5.85;;;;;;;;;;5091626;28;20122;-76
2021/12/29 01:29:35;;;;;;;16.17;5.38;;;;;;;;;;5091838;28;20066;-77
2021/12/29 01:32:01;;;;;;;16.90;5.38;;;;;;;;;;5091516;28;20043;-77
2021/12/29 01:34:28;;;;;;;18.95;5.55;;;;;;;;;;5092011;28;20040;-77
2021/12/29 01:36:54;;;;;;;15.32;5.53;;;;;;;;;;5091676;28;20036;-77
2021/12/29 01:39:21;;;;;;;18.52;5.57;;;;;;;;;;5092101;28;20047;-77
2021/12/29 01:41:48;;;;;;;17.40;5.57;;;;;;;;;;5092000;28;20040;-77
2021/12/29 01:44:15;;;;;;;21.10;5.97;;;;;;;;;;5092282;28;20047;-77
2021/12/29 01:46:42;;;;;;;20.73;6.47;;;;;;;;;;5091808;28;20089;-77
2021/12/29 01:49:08;;;;;;;23.83;6.95;;;;;;;;;;5091568;28;20043;-77
2021/12/29 01:51:35;;;;;;;25.17;6.47;;;;;;;;;;5091577;28;20135;-77
2021/12/29 01:54:14;;;;;;;25.52;7.15;;;;;;;;;;5090527;28;20043;-77
2021/12/29 01:56:40;;;;;;;30.75;7.40;;;;;;;;;;5091611;28;20040;-77
2021/12/29 01:59:06;;;;;;;32.50;8.00;;;;;;;;;;5074702;28;20043;-77
2021/12/29 02:01:32;;;;;;;69.18;11.45;;;;;;;;;;5091719;28;20043;-77
2021/12/29 02:04:00;;;;;;;51.10;9.82;;;;;;;;;;5091287;28;20036;-77
2021/12/29 02:06:26;;;;;;;42.03;8.50;;;;;;;;;;5091239;28;20086;-77
2021/12/29 02:08:54;;;;;;;43.60;8.55;;;;;;;;;;5091215;28;20052;-77
2021/12/29 02:11:28;;;;;;;46.05;8.10;;;;;;;;;;5091188;28;20048;-77
2021/12/29 02:13:55;;;;;;;34.50;7.70;;;;;;;;;;5074620;28;20052;-77
2021/12/29 02:16:21;;;;;;;46.88;9.07;;;;;;;;;;5074682;28;20047;-77
2021/12/29 02:18:54;;;;;;;42.03;8.18;;;;;;;;;;5091097;28;20032;-77
2021/12/29 02:21:24;;;;;;;34.22;6.93;;;;;;;;;;5091234;28;20109;-77
2021/12/29 02:24:17;;;;;;;39.20;9.48;;;;;;;;;;5089697;28;20035;-77
2021/12/29 02:26:40;;;;;;;30.75;7.53;;;;;;;;;;5090921;28;20059;-77
2021/12/29 02:29:07;;;;;;;45.45;7.97;;;;;;;;;;5074399;28;20491;-77
2021/12/29 02:31:36;;;;;;;51.60;10.43;;;;;;;;;;5091036;28;20040;-77
2021/12/29 02:34:02;;;;;;;45.85;9.65;;;;;;;;;;5089376;28;20561;-77
2021/12/29 02:36:27;;;;;;;28.20;8.00;;;;;;;;;;5074156;28;20036;-78
2021/12/29 02:38:55;;;;;;;30.25;7.95;;;;;;;;;;5073347;28;20036;-78
2021/12/29 02:41:23;;;;;;;33.35;9.32;;;;;;;;;;5090966;28;20058;-77
2021/12/29 02:43:54;;;;;;;48.10;9.23;;;;;;;;;;5090613;28;20169;-77
2021/12/29 02:46:20;;;;;;;61.53;10.02;;;;;;;;;;5074276;28;20055;-77
2021/12/29 02:48:54;;;;;;;49.53;9.25;;;;;;;;;;5090806;28;20447;-77
2021/12/29 02:51:20;;;;;;;32.95;7.28;;;;;;;;;;5090146;28;20056;-77
2021/12/29 02:53:46;;;;;;;37.08;8.05;;;;;;;;;;5090689;28;20093;-77
2021/12/29 02:56:12;;;;;;;32.60;7.88;;;;;;;;;;5073884;28;20542;-77
2021/12/29 02:58:38;;;;;;;28.58;7.65;;;;;;;;;;5090897;28;20039;-78
2021/12/29 03:01:06;;;;;;;28.98;8.02;;;;;;;;;;5090788;28;20090;-77
2021/12/29 03:03:36;;;;;;;21.75;7.22;;;;;;;;;;5102436;28;20474;-77
2021/12/29 03:06:03;;;;;;;30.42;6.07;;;;;;;;;;5093753;28;20059;-77
2021/12/29 03:08:29;;;;;;;22.17;6.07;;;;;;;;;;5093850;28;20491;-78
2021/12/29 03:10:55;;;;;;;24.35;5.75;;;;;;;;;;5093908;28;20057;-77
2021/12/29 03:13:25;;;;;;;19.30;5.82;;;;;;;;;;5111601;28;20487;-78
2021/12/29 03:15:52;;;;;;;17.65;5.38;;;;;;;;;;5111580;28;20034;-76
2021/12/29 03:18:18;;;;;;;23.48;5.60;;;;;;;;;;5110955;28;20031;-77
2021/12/29 03:20:44;;;;;;;19.48;6.10;;;;;;;;;;5111277;28;20479;-78
2021/12/29 03:23:11;;;;;;;19.30;5.47;;;;;;;;;;5094375;28;20084;-76
2021/12/29 03:25:37;;;;;;;15.70;5.60;;;;;;;;;;5094115;28;20036;-78
2021/12/29 03:28:03;;;;;;;23.40;6.38;;;;;;;;;;5094195;28;20039;-77
2021/12/29 03:30:32;;;;;;;25.80;5.55;;;;;;;;;;5110902;28;20469;-77
2021/12/29 03:33:05;;;;;;;15.32;5.43;;;;;;;;;;5100307;28;20079;-79
2021/12/29 03:35:35;;;;;;;19.30;5.07;;;;;;;;;;5074663;28;20051;-77
2021/12/29 03:38:02;;;;;;;17.80;5.53;;;;;;;;;;5073870;28;20042;-77
2021/12/29 03:40:28;;;;;;;21.35;6.07;;;;;;;;;;5074877;28;20278;-78
2021/12/29 03:42:55;;;;;;;16.58;5.05;;;;;;;;;;5074533;28;20088;-78
2021/12/29 03:45:21;;;;;;;19.05;5.88;;;;;;;;;;5092146;28;20044;-78
2021/12/29 03:47:47;;;;;;;18.52;5.85;;;;;;;;;;5091329;28;20044;-77
2021/12/29 03:50:13;;;;;;;13.65;4.55;;;;;;;;;;5074038;28;20373;-78
2021/12/29 03:52:40;;;;;;;17.50;5.70;;;;;;;;;;5090594;28;20504;-77
2021/12/29 03:55:07;;;;;;;21.48;6.95;;;;;;;;;;5073615;28;20457;-78
2021/12/29 03:57:33;;;;;;;21.55;5.95;;;;;;;;;;5073522;28;20036;-78
2021/12/29 03:59:59;;;;;;;27.73;7.72;;;;;;;;;;5074035;28;20044;-78
2021/12/29 04:02:25;;;;;;;25.60;7.25;;;;;;;;;;5074258;28;20459;-78
2021/12/29 04:04:51;;;;;;;28.33;7.80;;;;;;;;;;5094882;28;20059;-78
2021/12/29 04:07:17;;;;;;;23.30;7.00;;;;;;;;;;5095030;28;20097;-79
2021/12/29 04:09:43;;;;;;;20.95;7.45;;;;;;;;;;5094130;28;20157;-77
2021/12/29 04:12:09;;;;;;;26.40;6.72;;;;;;;;;;5094312;28;20131;-77
2021/12/29 04:14:35;;;;;;;22.80;7.38;;;;;;;;;;5077982;28;20102;-78
2021/12/29 04:17:08;;;;;;;25.20;7.47;;;;;;;;;;5076870;28;20480;-78
2021/12/29 04:20:54;;;;;;;30.23;7.70;;;;;;;;;;5094336;28;20039;-78
2021/12/29 04:22:28;;;;;;;29.00;8.43;;;;;;;;;;5093622;28;20488;-78
2021/12/29 04:24:54;;;;;;;30.50;8.80;;;;;;;;;;5093531;28;20127;-77
2021/12/29 04:27:23;;;;;;;37.45;10.07;;;;;;;;;;5094142;28;20036;-78
2021/12/29 04:29:49;;;;;;;30.65;8.82;;;;;;;;;;5093752;28;20062;-78
2021/12/29 04:32:15;;;;;;;39.58;10.60;;;;;;;;;;5078294;28;20040;-78
2021/12/29 04:34:41;;;;;;;31.88;9.63;;;;;;;;;;5113956;28;20035;-77
2021/12/29 04:37:08;;;;;;;31.77;9.32;;;;;;;;;;5113828;28;20035;-77
2021/12/29 04:39:34;;;;;;;39.22;10.05;;;;;;;;;;5113805;28;20441;-78
2021/12/29 04:41:59;;;;;;;33.20;9.85;;;;;;;;;;5113509;28;20050;-77
2021/12/29 04:44:25;;;;;;;38.08;10.80;;;;;;;;;;5113700;28;20062;-78
2021/12/29 04:46:54;;;;;;;31.63;9.60;;;;;;;;;;5097010;28;20078;-78
2021/12/29 04:49:25;;;;;;;36.38;10.32;;;;;;;;;;5113513;28;20051;-77
2021/12/29 04:51:56;;;;;;;34.42;10.00;;;;;;;;;;5113976;28;20075;-78
2021/12/29 04:54:22;;;;;;;;;;;;;;;;;;5114364;28;20066;-77
2021/12/29 04:56:49;;;;;;;28.48;9.05;;;;;;;;;;5113475;28;20283;-78
2021/12/29 04:59:16;;;;;;;39.50;10.50;;;;;;;;;;5113718;28;20067;-77
2021/12/29 05:01:42;;;;;;;25.70;9.05;;;;;;;;;;5096665;28;20043;-78
2021/12/29 05:04:08;;;;;;;35.45;11.07;;;;;;;;;;5111623;28;20384;-77
2021/12/29 05:09:20;;;;;;;28.65;10.13;;;;;;;;;;5110445;28;20048;-77
2021/12/29 05:11:46;;;;;;;34.38;9.40;;;;;;;;;;5092796;28;20133;-77
2021/12/29 05:14:13;;;;;;;33.60;10.25;;;;;;;;;;5092990;28;20046;-78
2021/12/29 05:16:39;;;;;;;29.35;10.55;;;;;;;;;;5092825;28;20434;-77
2021/12/29 05:19:05;;;;;;;39.20;10.50;;;;;;;;;;5092563;28;20040;-77
2021/12/29 05:21:31;;;;;;;30.48;10.70;;;;;;;;;;5093022;28;20047;-78
2021/12/29 05:23:57;;;;;;;27.02;9.25;;;;;;;;;;5092336;28;20048;-77
2021/12/29 05:26:23;;;;;;;32.03;9.63;;;;;;;;;;5092813;28;20526;-77
2021/12/29 05:28:49;;;;;;;28.88;9.68;;;;;;;;;;5092983;28;20036;-78
2021/12/29 05:31:15;;;;;;;28.52;9.55;;;;;;;;;;5092295;28;20055;-78
2021/12/29 05:33:41;;;;;;;38.72;11.68;;;;;;;;;;5105491;28;20390;-76
2021/12/29 05:36:07;;;;;;;30.75;10.13;;;;;;;;;;5112534;28;20039;-77
2021/12/29 05:38:33;;;;;;;35.92;10.50;;;;;;;;;;5112677;28;20031;-77
2021/12/29 05:40:59;;;;;;;33.85;10.85;;;;;;;;;;5095653;28;20181;-77
2021/12/29 05:43:24;;;;;;;33.35;10.73;;;;;;;;;;5112108;28;20046;-77
2021/12/29 05:45:51;;;;;;;30.10;9.98;;;;;;;;;;5112731;28;20035;-78
2021/12/29 05:48:17;;;;;;;30.15;11.45;;;;;;;;;;5095237;28;20040;-77
2021/12/29 05:50:43;;;;;;;31.60;10.48;;;;;;;;;;5112538;28;20040;-77
2021/12/29 05:53:09;;;;;;;27.95;9.98;;;;;;;;;;5111804;28;20492;-78
2021/12/29 05:55:35;;;;;;;29.63;10.77;;;;;;;;;;5112117;28;20039;-77
2021/12/29 05:58:01;;;;;;;30.88;9.85;;;;;;;;;;5112077;28;20040;-76
2021/12/29 06:00:28;;;;;;;28.83;10.68;;;;;;;;;;5094910;28;20084;-77
2021/12/29 06:02:54;;;;;;;36.88;11.35;;;;;;;;;;5094598;28;20043;-77
2021/12/29 06:05:20;;;;;;;38.40;11.88;;;;;;;;;;5112216;28;20073;-78
2021/12/29 06:07:46;;;;;;;39.13;12.75;;;;;;;;;;5111480;28;20067;-77
2021/12/29 06:10:12;;;;;;;37.50;12.25;;;;;;;;;;5076084;28;20475;-77
2021/12/29 06:12:39;;;;;;;30.80;9.95;;;;;;;;;;5091251;28;20079;-78
2021/12/29 06:15:06;;;;;;;31.73;11.40;;;;;;;;;;5091207;28;20192;-77
2021/12/29 06:17:32;;;;;;;36.25;12.15;;;;;;;;;;5091120;28;20400;-77
2021/12/29 06:19:58;;;;;;;31.00;11.15;;;;;;;;;;5091142;28;20040;-79
2021/12/29 06:22:25;;;;;;;32.88;10.50;;;;;;;;;;5091253;28;20051;-78
2021/12/29 06:24:52;;;;;;;29.65;10.80;;;;;;;;;;5090499;28;20455;-78
2021/12/29 06:27:19;;;;;;;35.13;11.13;;;;;;;;;;5091401;28;20044;-77
2021/12/29 06:29:45;;;;;;;37.38;11.95;;;;;;;;;;5091297;28;20044;-78
2021/12/29 06:32:11;;;;;;;29.52;10.27;;;;;;;;;;5090971;28;20043;-78
2021/12/29 06:34:37;;;;;;;34.78;12.63;;;;;;;;;;5091393;28;20512;-77
2021/12/29 06:37:08;;;;;;;30.33;10.30;;;;;;;;;;5091019;28;20036;-78
2021/12/29 06:39:35;;;;;;;40.42;10.55;;;;;;;;;;5107974;28;20522;-77
2021/12/29 06:42:01;;;;;;;29.35;10.43;;;;;;;;;;5090605;28;20051;-77
2021/12/29 06:44:27;;;;;;;33.63;11.48;;;;;;;;;;5091181;28;20395;-78
2021/12/29 06:46:52;;;;;;;29.38;11.57;;;;;;;;;;5090578;28;20101;-78
2021/12/29 06:49:18;;;;;;;28.05;10.60;;;;;;;;;;5090510;28;20036;-77
2021/12/29 06:51:44;;;;;;;32.13;10.68;;;;;;;;;;5090458;28;20052;-76
2021/12/29 06:54:10;;;;;;;27.27;10.48;;;;;;;;;;5090408;28;20039;-77
2021/12/29 06:56:36;;;;;;;31.95;10.10;;;;;;;;;;5090376;28;20036;-77
2021/12/29 06:59:02;;;;;;;25.77;10.52;;;;;;;;;;5090339;28;20173;-77
2021/12/29 07:01:28;;;;;;;24.58;8.82;;;;;;;;;;5090045;28;20480;-77
2021/12/29 07:03:54;;;;;;;25.42;10.00;;;;;;;;;;5090036;28;20051;-77
2021/12/29 07:06:20;;;;;;;25.42;9.45;;;;;;;;;;5090507;28;20145;-77
2021/12/29 07:08:46;;;;;;;27.08;9.32;;;;;;;;;;5090569;28;20047;-78
2021/12/29 07:11:12;;;;;;;26.13;10.40;;;;;;;;;;5090317;28;20036;-77
2021/12/29 07:13:38;;;;;;;26.33;9.60;;;;;;;;;;5090411;28;20063;-77
2021/12/29 07:16:04;;;;;;;27.25;9.45;;;;;;;;;;5090266;28;20206;-78
2021/12/29 07:18:30;;;;;;;28.60;10.02;;;;;;;;;;5090291;28;20028;-78
2021/12/29 07:20:56;;;;;;;23.52;9.30;;;;;;;;;;5090666;28;20130;-78
2021/12/29 07:23:22;;;;;;;34.88;10.35;;;;;;;;;;5089997;28;20036;-78
2021/12/29 07:25:48;;;;;;;29.73;9.55;;;;;;;;;;5090151;28;20419;-77
2021/12/29 07:28:14;;;;;;;36.58;10.15;;;;;;;;;;5089907;28;20040;-77
2021/12/29 07:30:58;;;;;;;34.03;9.50;;;;;;;;;;5090482;28;20066;-77
2021/12/29 07:33:24;;;;;;;23.95;7.68;;;;;;;;;;5090345;28;20067;-77
2021/12/29 07:35:50;;;;;;;30.63;9.18;;;;;;;;;;5090433;28;20036;-77
2021/12/29 07:38:16;;;;;;;36.88;9.65;;;;;;;;;;5094683;28;20040;-78
2021/12/29 07:40:42;;;;;;;40.95;10.57;;;;;;;;;;5094316;28;20039;-78
2021/12/29 07:43:09;;;;;;;30.95;9.82;;;;;;;;;;5094189;28;20082;-77
2021/12/29 07:45:35;;;;;;;32.33;9.95;;;;;;;;;;5094433;28;20117;-77
2021/12/29 07:48:04;;;;;;;26.75;8.68;;;;;;;;;;5094076;28;20042;-78
2021/12/29 07:50:30;;;;;;;29.83;9.32;;;;;;;;;;5094302;28;20051;-77
2021/12/29 07:52:55;;;;;;;30.85;9.18;;;;;;;;;;5094001;28;20052;-77
2021/12/29 07:55:22;;;;;;;30.00;8.07;;;;;;;;;;5094274;28;20046;-77
2021/12/29 07:57:48;;;;;;;27.00;8.88;;;;;;;;;;5092367;28;20039;-77
2021/12/29 08:00:16;;;;;;;27.75;8.82;;;;;;;;;;5094169;28;20040;-78
2021/12/29 08:02:44;;;;;;;33.67;9.40;;;;;;;;;;5081516;28;20036;-78
2021/12/29 08:05:10;;;;;;;29.58;8.80;;;;;;;;;;5083000;28;20561;-77
2021/12/29 08:07:36;;;;;;;27.27;8.93;;;;;;;;;;5081031;28;20105;-78
2021/12/29 08:10:03;;;;;;;32.85;8.50;;;;;;;;;;5084526;28;20034;-78
2021/12/29 08:12:29;;;;;;;27.30;9.15;;;;;;;;;;5093621;28;20044;-77
2021/12/29 08:14:55;;;;;;;33.05;9.35;;;;;;;;;;5093558;28;20043;-77
2021/12/29 08:17:21;;;;;;;25.50;8.43;;;;;;;;;;5093580;28;20545;-77
2021/12/29 08:19:47;;;;;;;26.02;8.60;;;;;;;;;;5093368;28;20043;-77
2021/12/29 08:22:13;;;;;;;27.27;8.55;;;;;;;;;;5093769;28;20059;-77
2021/12/29 08:24:39;;;;;;;30.20;8.10;;;;;;;;;;5093621;28;20410;-77
2021/12/29 08:27:05;;;;;;;29.77;7.90;;;;;;;;;;5093763;28;20071;-77
2021/12/29 08:29:32;;;;;;;34.45;10.48;;;;;;;;;;5093320;28;20055;-77
2021/12/29 08:31:58;;;;;;;21.75;7.82;;;;;;;;;;5090855;28;20051;-75
2021/12/29 08:34:24;;;;;;;26.90;8.82;;;;;;;;;;5093015;28;20042;-76
2021/12/29 08:36:50;;;;;;;30.70;8.20;;;;;;;;;;5092341;28;20050;-77
2021/12/29 08:39:18;;;;;;;28.25;8.25;;;;;;;;;;5110189;28;20051;-77
2021/12/29 08:41:45;;;;;;;27.13;7.68;;;;;;;;;;5109882;28;20051;-77
2021/12/29 08:44:11;;;;;;;27.63;7.53;;;;;;;;;;5092738;28;20398;-77
2021/12/29 08:46:37;;;;;;;32.28;8.25;;;;;;;;;;5094152;28;20037;-76
2021/12/29 08:49:03;;;;;;;36.25;7.78;;;;;;;;;;5068245;28;20400;-77
2021/12/29 08:51:29;;;;;;;29.10;7.05;;;;;;;;;;5069139;28;20041;-77
2021/12/29 08:53:57;;;;;;;37.83;8.20;;;;;;;;;;5069051;28;20387;-77
2021/12/29 08:56:23;;;;;;;44.05;8.82;;;;;;;;;;5068761;28;20044;-76
2021/12/29 08:58:50;;;;;;;30.92;8.40;;;;;;;;;;5069242;28;20499;-77
2021/12/29 09:01:16;;;;;;;39.10;9.05;;;;;;;;;;5069784;28;20055;-76
2021/12/29 09:03:42;;;;;;;35.10;8.07;;;;;;;;;;5072455;28;20409;-76
2021/12/29 09:06:08;;;;;;;32.17;8.48;;;;;;;;;;5088692;28;20542;-76
2021/12/29 09:08:34;;;;;;;31.92;7.63;;;;;;;;;;5072318;28;20133;-76
2021/12/29 09:11:00;;;;;;;25.65;7.97;;;;;;;;;;5088561;28;20533;-77
2021/12/29 09:13:26;;;;;;;40.33;9.82;;;;;;;;;;5088556;28;20115;-77
2021/12/29 09:15:56;;;;;;;23.95;7.15;;;;;;;;;;5088883;28;20044;-77
2021/12/29 09:18:23;;;;;;;27.08;8.32;;;;;;;;;;5089124;28;20075;-77
2021/12/29 09:20:49;;;;;;;29.45;8.70;;;;;;;;;;5088871;28;20047;-76
2021/12/29 09:23:16;;;;;;;27.00;7.72;;;;;;;;;;5088991;28;20048;-77
2021/12/29 09:25:43;;;;;;;39.00;8.90;;;;;;;;;;5088609;28;20084;-76
2021/12/29 09:28:10;;;;;;;28.30;7.97;;;;;;;;;;5088704;28;20137;-76
2021/12/29 09:30:38;;;;;;;27.45;8.80;;;;;;;;;;5076247;28;20041;-76
2021/12/29 09:33:05;;;;;;;22.60;7.35;;;;;;;;;;5082351;28;20044;-77
2021/12/29 09:35:31;;;;;;;33.22;8.77;;;;;;;;;;5087963;28;20121;-76
2021/12/29 09:37:57;;;;;;;31.70;7.78;;;;;;;;;;5088244;28;20089;-76
2021/12/29 09:40:24;;;;;;;31.13;9.48;;;;;;;;;;5088551;28;20051;-76
2021/12/29 09:42:51;;;;;;;31.63;8.25;;;;;;;;;;5085602;28;20052;-76
2021/12/29 09:45:17;;;;;;;32.03;9.23;;;;;;;;;;5078290;28;20444;-77
2021/12/29 09:47:44;;;;;;;35.20;9.88;;;;;;;;;;5078231;28;20044;-76
2021/12/29 09:50:12;;;;;;;26.80;9.65;;;;;;;;;;5077975;28;20036;-75
2021/12/29 09:52:38;;;;;;;31.85;8.93;;;;;;;;;;5078112;28;20040;-76
2021/12/29 09:55:06;;;;;;;38.15;9.05;;;;;;;;;;5075748;28;20045;-76
2021/12/29 09:57:35;;;;;;;43.60;9.23;;;;;;;;;;5081992;28;20040;-76
2021/12/29 10:00:05;;;;;;;70.53;10.75;;;;;;;;;;5088019;28;20056;-76
2021/12/29 10:02:31;;;;;;;46.10;10.20;;;;;;;;;;5091375;28;20047;-76
2021/12/29 10:04:59;;;;;;;89.25;11.25;;;;;;;;;;5091477;28;20043;-76
2021/12/29 10:07:26;;;;;;;73.80;11.98;;;;;;;;;;5108125;28;20063;-77
2021/12/29 10:09:52;;;;;;;26.42;7.65;;;;;;;;;;5108404;28;20055;-76
2021/12/29 10:12:21;;;;;;;40.97;8.52;;;;;;;;;;5107888;28;20055;-76
2021/12/29 10:14:51;;;;;;;28.48;8.43;;;;;;;;;;5108033;28;20040;-77
2021/12/29 10:17:17;;;;;;;28.00;7.72;;;;;;;;;;5090939;28;20578;-76
2021/12/29 10:19:43;;;;;;;34.83;8.40;;;;;;;;;;5091475;28;20119;-76
2021/12/29 10:22:19;;;;;;;30.92;8.18;;;;;;;;;;5107834;28;20036;-76
2021/12/29 10:24:45;;;;;;;29.27;8.35;;;;;;;;;;5090704;28;20044;-76
2021/12/29 10:27:16;;;;;;;26.83;7.18;;;;;;;;;;5108136;28;20405;-76
2021/12/29 10:29:41;;;;;;;20.23;5.95;;;;;;;;;;5107997;28;20150;-76
2021/12/29 10:32:08;;;;;;;21.23;6.97;;;;;;;;;;5106483;28;20043;-76
2021/12/29 10:34:34;;;;;;;17.60;6.28;;;;;;;;;;5107633;28;20079;-76
2021/12/29 10:37:06;;;;;;;20.45;6.45;;;;;;;;;;5107142;28;20036;-76
2021/12/29 10:39:43;;;;;;;17.42;6.32;;;;;;;;;;5107297;28;20343;-76
2021/12/29 10:42:11;;;;;;;22.05;6.00;;;;;;;;;;5090408;28;20047;-76
2021/12/29 10:44:39;;;;;;;15.13;6.22;;;;;;;;;;5090582;28;20094;-77
2021/12/29 10:47:17;;;;;;;20.80;5.93;;;;;;;;;;5090458;28;20492;-76
2021/12/29 10:49:50;;;;;;;15.75;5.80;;;;;;;;;;5107280;28;20042;-77
2021/12/29 10:52:17;;;;;;;15.57;4.93;;;;;;;;;;5094239;28;20399;-77
2021/12/29 10:54:43;;;;;;;15.70;5.20;;;;;;;;;;5086857;28;20040;-77
2021/12/29 10:57:15;;;;;;;15.63;4.43;;;;;;;;;;5070268;28;20418;-77
2021/12/29 10:59:41;;;;;;;13.82;5.10;;;;;;;;;;5086700;28;20503;-77
2021/12/29 11:02:08;;;;;;;11.60;4.80;;;;;;;;;;5086944;28;20415;-76
2021/12/29 11:04:34;;;;;;;9.35;4.30;;;;;;;;;;5087086;28;20048;-76
2021/12/29 11:07:01;;;;;;;12.68;4.63;;;;;;;;;;5086609;28;20117;-76
2021/12/29 11:09:29;;;;;;;10.32;4.40;;;;;;;;;;5086769;28;20110;-76
2021/12/29 11:11:56;;;;;;;9.45;3.95;;;;;;;;;;5069139;28;20044;-77
2021/12/29 11:14:28;;;;;;;9.60;3.85;;;;;;;;;;5086934;28;20083;-77
2021/12/29 11:17:17;;;;;;;12.05;4.75;;;;;;;;;;5086800;28;20102;-77
2021/12/29 11:19:58;;;;;;;11.00;4.18;;;;;;;;;;5069648;28;20515;-76
2021/12/29 11:22:25;;;;;;;11.82;4.20;;;;;;;;;;5085626;28;20055;-76
2021/12/29 11:24:59;;;;;;;11.73;4.78;;;;;;;;;;5086527;28;20557;-77
2021/12/29 11:27:26;;;;;;;13.65;4.22;;;;;;;;;;5086836;28;20631;-77
2021/12/29 11:29:53;;;;;;;13.50;5.07;;;;;;;;;;5086615;28;20040;-76
2021/12/29 11:32:24;;;;;;;13.10;5.18;;;;;;;;;;5088202;28;20439;-76
2021/12/29 11:35:00;;;;;;;12.35;4.30;;;;;;;;;;5089982;28;20169;-77
2021/12/29 11:37:26;;;;;;;12.35;4.43;;;;;;;;;;5089522;28;20126;-77
2021/12/29 11:39:53;;;;;;;12.95;4.97;;;;;;;;;;5089927;28;20150;-77
2021/12/29 11:42:18;;;;;;;14.68;5.15;;;;;;;;;;5089573;28;20039;-76
2021/12/29 11:44:45;;;;;;;14.98;5.22;;;;;;;;;;5089863;28;20400;-76
2021/12/29 11:47:11;;;;;;;10.40;4.78;;;;;;;;;;5106782;28;20430;-77
2021/12/29 11:49:38;;;;;;;16.30;5.93;;;;;;;;;;5106363;28;20398;-77
2021/12/29 11:52:10;;;;;;;18.02;4.80;;;;;;;;;;5106559;28;20369;-76
2021/12/29 11:54:38;;;;;;;13.48;5.40;;;;;;;;;;5107041;28;20096;-77
2021/12/29 11:57:12;;;;;;;16.63;5.38;;;;;;;;;;5089210;28;20419;-77
2021/12/29 11:59:38;;;;;;;12.75;5.85;;;;;;;;;;5105981;28;20403;-76
2021/12/29 12:02:04;;;;;;;19.40;5.75;;;;;;;;;;5089261;28;20083;-76
2021/12/29 12:04:30;;;;;;;18.17;5.97;;;;;;;;;;5106303;28;20459;-77
2021/12/29 12:07:01;;;;;;;17.30;5.75;;;;;;;;;;5106322;28;20446;-77
2021/12/29 12:09:27;;;;;;;;;;;;;;;;;;5106869;28;20047;-77
2021/12/29 12:11:59;;;;;;;14.80;5.45;;;;;;;;;;5088904;28;19931;-76
2021/12/29 12:14:27;;;;;;;20.83;7.03;;;;;;;;;;5106509;28;20039;-76
2021/12/29 12:16:59;;;;;;;15.63;5.72;;;;;;;;;;5089197;28;20540;-77
2021/12/29 12:19:26;;;;;;;18.60;6.75;;;;;;;;;;5089601;28;20130;-77
2021/12/29 12:22:10;;;;;;;19.33;6.70;;;;;;;;;;5106161;28;20427;-76
2021/12/29 12:24:37;;;;;;;18.30;6.35;;;;;;;;;;5109300;28;20090;-76
2021/12/29 12:27:05;;;;;;;17.58;6.05;;;;;;;;;;5092858;28;20050;-77
2021/12/29 12:29:33;;;;;;;19.17;6.93;;;;;;;;;;5092796;28;20353;-76
2021/12/29 12:32:00;;;;;;;20.90;6.93;;;;;;;;;;5091929;28;20100;-77
2021/12/29 12:34:26;;;;;;;20.88;5.97;;;;;;;;;;5092845;28;20044;-77
2021/12/29 12:36:52;;;;;;;14.38;6.03;;;;;;;;;;5109895;28;20491;-77
2021/12/29 12:39:19;;;;;;;22.33;7.07;;;;;;;;;;5092829;28;20074;-77
2021/12/29 12:41:50;;;;;;;15.82;6.22;;;;;;;;;;5109880;28;20100;-76
2021/12/29 12:44:19;;;;;;;17.13;6.80;;;;;;;;;;5109287;28;20046;-77
2021/12/29 12:46:52;;;;;;;16.95;6.43;;;;;;;;;;5109485;28;20150;-76
2021/12/29 12:49:29;;;;;;;17.58;6.53;;;;;;;;;;5109302;28;20043;-76
2021/12/29 12:51:59;;;;;;;20.02;5.97;;;;;;;;;;5109265;28;20079;-77
2021/12/29 12:54:28;;;;;;;15.90;5.97;;;;;;;;;;5109287;28;20479;-77
2021/12/29 12:56:58;;;;;;;13.82;5.90;;;;;;;;;;5109223;28;20448;-77
2021/12/29 12:59:34;;;;;;;12.03;5.07;;;;;;;;;;5092723;28;20130;-77
2021/12/29 13:02:11;;;;;;;15.80;5.45;;;;;;;;;;5109180;28;20073;-77
2021/12/29 13:04:42;;;;;;;17.45;6.30;;;;;;;;;;5109221;28;20112;-77
2021/12/29 13:07:08;;;;;;;11.98;5.10;;;;;;;;;;5108793;28;20459;-77
2021/12/29 13:09:45;;;;;;;11.82;5.43;;;;;;;;;;5109097;28;20138;-77
2021/12/29 13:12:11;;;;;;;20.30;6.28;;;;;;;;;;5108914;28;20051;-77
2021/12/29 13:14:36;;;;;;;17.05;5.88;;;;;;;;;;5109292;28;20504;-77
2021/12/29 13:17:03;;;;;;;14.30;5.50;;;;;;;;;;5108894;28;20044;-77
2021/12/29 13:19:30;;;;;;;12.05;5.40;;;;;;;;;;5108504;28;20034;-77
2021/12/29 13:21:59;;;;;;;17.40;5.53;;;;;;;;;;5108755;28;20097;-76
2021/12/29 13:24:25;;;;;;;14.13;5.72;;;;;;;;;;5091687;28;20420;-76
2021/12/29 13:26:52;;;;;;;11.50;5.40;;;;;;;;;;5091890;28;20047;-77
2021/12/29 13:29:23;;;;;;;18.40;6.30;;;;;;;;;;5108596;28;20121;-77
2021/12/29 13:31:49;;;;;;;;;;;;;;;;;;5092078;28;20485;-76
2021/12/29 13:34:15;;;;;;;15.65;6.00;;;;;;;;;;5094540;28;19977;-77
2021/12/29 13:36:42;;;;;;;17.90;6.72;;;;;;;;;;5112007;28;20478;-77
2021/12/29 13:39:08;;;;;;;20.08;7.38;;;;;;;;;;5112322;28;20043;-77
2021/12/29 13:41:35;;;;;;;26.85;7.28;;;;;;;;;;5112412;28;20465;-77
2021/12/29 13:44:03;;;;;;;22.50;6.57;;;;;;;;;;5112054;28;20039;-77
2021/12/29 13:46:30;;;;;;;22.65;7.15;;;;;;;;;;5112470;28;20044;-76
2021/12/29 13:48:57;;;;;;;18.00;6.35;;;;;;;;;;5095225;28;20039;-77
2021/12/29 13:51:25;;;;;;;15.93;7.13;;;;;;;;;;5094921;28;20039;-77
2021/12/29 13:53:58;;;;;;;17.17;7.28;;;;;;;;;;5111941;28;20480;-77
2021/12/29 13:56:26;;;;;;;15.80;7.22;;;;;;;;;;5095192;28;20078;-77
2021/12/29 13:59:00;;;;;;;20.65;7.90;;;;;;;;;;5110131;28;20046;-77
2021/12/29 14:01:27;;;;;;;31.38;8.63;;;;;;;;;;5111865;28;20035;-77
2021/12/29 14:03:53;;;;;;;21.00;7.65;;;;;;;;;;5111808;28;20042;-77
2021/12/29 14:06:19;;;;;;;24.05;9.00;;;;;;;;;;5111940;28;20071;-77
2021/12/29 14:08:46;;;;;;;16.33;6.65;;;;;;;;;;5111465;28;20126;-77
2021/12/29 14:11:13;;;;;;;16.83;7.38;;;;;;;;;;5111570;28;20130;-77
2021/12/29 14:13:44;;;;;;;23.80;9.05;;;;;;;;;;5094651;28;20067;-77
2021/12/29 14:16:12;;;;;;;19.90;7.38;;;;;;;;;;5103287;28;20111;-76
2021/12/29 14:18:47;;;;;;;17.33;7.38;;;;;;;;;;5091290;28;20036;-77
2021/12/29 14:21:17;;;;;;;22.65;9.10;;;;;;;;;;5091461;28;20035;-76
2021/12/29 14:23:45;;;;;;;24.17;7.63;;;;;;;;;;5091020;28;20036;-77
2021/12/29 14:26:12;;;;;;;27.10;8.80;;;;;;;;;;5091489;28;20032;-77
2021/12/29 14:28:38;;;;;;;21.80;7.95;;;;;;;;;;5089558;28;20040;-77
2021/12/29 14:31:08;;;;;;;23.73;9.60;;;;;;;;;;5090849;28;20040;-76
2021/12/29 14:33:35;;;;;;;25.13;8.30;;;;;;;;;;5072099;28;20052;-77